ESOK Airport Information

Runway Information
Runway 03 Length 8255 ft width 148 ft
Elevation 332 ft Threshold 0 ft Heading 26
Runway 21 Length 8255 ft Width 148 ft
Elevation 352 ft Threshold 0 ft Heading 206
Runway 03L Length 1840 ft width 170 ft
Elevation 0 ft Threshold 0 ft Heading 26
Runway 21R Length 1840 ft Width 170 ft
Elevation 0 ft Threshold 0 ft Heading 206
Airport Frequencies
Type TWR Name TWR Frequency 119.45 MHZ
Airport Navaids
Type VOR-DME Name Karlstad Frequency 117800 KHZ
Airport Weather Information & NOTAM
ADDS - METARS form results

(1959 UTC 16 July 2018)
 
METAR text: ESOK 161950Z 27001KT CAVOK 25/14 Q1014
Conditions at: ESOK (KARLSTAD NORTH , SE) observed 1950 UTC 16 July 2018
Temperature: 25.0°C (77°F)
Dewpoint: 14.0°C (57°F) [RH = 50%]
Pressure (altimeter): 29.94 inches Hg (1014.0 mb)
Winds: from the W (270 degrees) at 1 MPH (1 knots; 0.5 m/s)
Visibility: 6 or more miles (10+ km)
Ceiling: ceiling and visibility are OK
Clouds: unknown
Weather: no significant weather observed at this time

METAR text: ESOK 161920Z 20002KT CAVOK 27/13 Q1014
Conditions at: ESOK (KARLSTAD NORTH , SE) observed 1920 UTC 16 July 2018
Temperature: 27.0°C (81°F)
Dewpoint: 13.0°C (55°F) [RH = 42%]
Pressure (altimeter): 29.94 inches Hg (1014.0 mb)
Winds: from the SSW (200 degrees) at 2 MPH (2 knots; 1.0 m/s)
Visibility: 6 or more miles (10+ km)
Ceiling: ceiling and visibility are OK
Clouds: unknown
Weather: no significant weather observed at this time